Time;durP1;ratioP1;P1;durP2;ratioP2;P2;SDS_P1;SDS_P2;PMS_P1;PMS_P2;Temp;Humidity;BMP_temperature;BMP_pressure;BME280_temperature;BME280_humidity;BME280_pressure;Samples;Min_cycle;Max_cycle;Signal;HPM_P1;HPM_P2
2024/03/25 08:52:43;;;;;;;;;;;;;;;7.73;100.00;98803.72;5695181;23;19989;-86
2024/03/25 08:55:09;;;;;;;;;;;;;;;7.73;100.00;98798.47;4859474;29;19924;-87
2024/03/25 08:57:34;;;;;;;;;;;;;;;7.76;100.00;98796.53;4860463;29;20288;-90
2024/03/25 08:59:59;;;;;;;;;;;;;;;7.72;100.00;98781.78;4861012;29;19924;-87
2024/03/25 09:02:24;;;;;;;;;;;;;;;7.76;100.00;98785.97;4860101;29;20597;-87
2024/03/25 09:04:50;;;;;;;;;;;;;;;7.79;100.00;98785.84;4860554;29;19928;-89
2024/03/25 09:07:15;;;;;;;;;;;;;;;7.78;100.00;98778.84;4857847;29;19925;-87
2024/03/25 09:12:24;;;;;;;;;;;;;;;7.79;100.00;98770.00;4859317;29;19981;-86
2024/03/25 09:14:51;;;;;;;;;;;;;;;8.39;100.00;98760.09;4859922;29;20407;-85
2024/03/25 09:17:19;;;;;;;;;;;;;;;8.82;100.00;98761.44;4860530;29;20026;-84
2024/03/25 09:19:44;;;;;;;;;;;;;;;9.14;100.00;98750.94;4860484;29;19920;-83
2024/03/25 09:22:09;;;;;;;;;;;;;;;8.35;100.00;98747.06;4859317;29;19927;-85
2024/03/25 09:24:34;;;;;;;;;;;;;;;8.14;100.00;98748.97;4859318;29;19928;-83
2024/03/25 09:26:59;;;;;;;;;;;;;;;8.06;100.00;98740.59;4859852;29;20030;-86
2024/03/25 09:29:25;;;;;;;;;;;;;;;8.01;100.00;98737.34;4859254;29;20424;-86
2024/03/25 09:31:50;;;;;;;;;;;;;;;8.00;100.00;98735.63;4860555;29;19924;-87
2024/03/25 09:34:15;;;;;;;;;;;;;;;8.00;100.00;98725.06;4858987;29;19928;-87
2024/03/25 09:36:41;;;;;;;;;;;;;;;7.97;100.00;98715.50;4857045;29;20098;-87
2024/03/25 09:39:07;;;;;;;;;;;;;;;8.00;100.00;98717.16;4858905;29;19949;-87
2024/03/25 09:41:35;;;;;;;;;;;;;;;8.00;100.00;98709.22;4860355;29;19924;-87
2024/03/25 09:44:00;;;;;;;;;;;;;;;8.05;100.00;98706.38;4860236;29;19920;-87
2024/03/25 09:46:26;;;;;;;;;;;;;;;8.02;100.00;98701.25;4860331;29;19927;-87
2024/03/25 09:48:52;;;;;;;;;;;;;;;8.02;100.00;98695.97;4860099;29;19920;-86
2024/03/25 09:51:18;;;;;;;;;;;;;;;8.00;100.00;98693.41;4860021;29;20288;-91
2024/03/25 09:53:43;;;;;;;;;;;;;;;8.00;100.00;98690.78;4857502;29;19924;-87
2024/03/25 09:56:09;;;;;;;;;;;;;;;8.04;100.00;98684.44;4860164;29;20360;-86
2024/03/25 09:58:35;;;;;;;;;;;;;;;8.05;100.00;98680.84;4860066;29;19929;-86
2024/03/25 10:01:01;;;;;;;;;;;;;;;8.05;100.00;98678.19;4858448;29;19928;-86
2024/03/25 10:03:26;;;;;;;;;;;;;;;8.07;100.00;98676.31;4858883;29;19920;-86
2024/03/25 10:05:51;;;;;;;;;;;;;;;8.09;100.00;98677.13;4860008;29;20281;-86
2024/03/25 10:08:20;;;;;;;;;;;;;;;8.11;100.00;98680.53;4858649;29;20000;-86
2024/03/25 10:10:45;;;;;;;;;;;;;;;8.09;100.00;98669.22;4859391;29;19928;-86
2024/03/25 10:13:10;;;;;;;;;;;;;;;8.09;100.00;98671.84;4858556;29;20019;-87
2024/03/25 10:15:38;;;;;;;;;;;;;;;8.08;100.00;98672.78;4859749;29;19989;-87
2024/03/25 10:18:03;;;;;;;;;;;;;;;9.85;100.00;98665.06;4860140;29;19924;-86
2024/03/25 10:20:29;;;;;;;;;;;;;;;8.88;100.00;98665.16;4858987;29;19950;-86
2024/03/25 10:22:54;;;;;;;;;;;;;;;8.55;100.00;98660.72;4858365;29;19972;-90
2024/03/25 10:25:23;;;;;;;;;;;;;;;8.39;100.00;98657.16;4859306;29;20368;-86
2024/03/25 10:27:58;;;;;;;;;;;;;;;8.36;100.00;98651.09;4859834;29;19930;-87
2024/03/25 10:30:24;;;;;;;;;;;;;;;8.39;100.00;98652.72;4859778;29;20348;-86
2024/03/25 10:33:02;;;;;;;;;;;;;;;8.35;100.00;98643.28;4859107;29;20007;-86
2024/03/25 10:35:28;;;;;;;;;;;;;;;8.34;100.00;98644.19;4859032;29;19932;-87
2024/03/25 10:38:14;;;;;;;;;;;;;;;8.33;100.00;98629.31;4857928;29;20373;-87
2024/03/25 10:40:39;;;;;;;;;;;;;;;8.34;100.00;98623.06;4858780;29;19920;-87
2024/03/25 10:43:09;;;;;;;;;;;;;;;8.30;100.00;98617.13;4860982;29;20372;-86
2024/03/25 10:45:35;;;;;;;;;;;;;;;8.29;100.00;98611.91;4863614;29;19926;-86
2024/03/25 10:48:10;;;;;;;;;;;;;;;8.32;100.00;98617.88;4863351;29;19949;-88
2024/03/25 10:50:36;;;;;;;;;;;;;;;8.39;100.00;98610.47;4863252;29;19931;-88
2024/03/25 10:53:02;;;;;;;;;;;;;;;8.32;100.00;98607.31;4864008;29;19958;-87
2024/03/25 10:55:27;;;;;;;;;;;;;;;8.38;100.00;98606.16;4864683;29;19967;-86
2024/03/25 10:57:54;;;;;;;;;;;;;;;8.36;100.00;98602.75;4864377;29;19927;-87
2024/03/25 11:00:21;;;;;;;;;;;;;;;8.39;100.00;98602.56;4864881;29;20442;-83
2024/03/25 11:02:47;;;;;;;;;;;;;;;8.37;100.00;98597.38;4880936;29;19924;-86
2024/03/25 11:05:13;;;;;;;;;;;;;;;8.32;100.00;98593.28;4864277;29;20031;-88
2024/03/25 11:07:40;;;;;;;;;;;;;;;8.34;100.00;98592.28;4880499;29;20360;-88
2024/03/25 11:10:06;;;;;;;;;;;;;;;8.36;100.00;98581.63;4864638;29;19973;-89
2024/03/25 11:12:34;;;;;;;;;;;;;;;8.36;100.00;98587.75;4880853;29;19928;-86
2024/03/25 11:15:01;;;;;;;;;;;;;;;8.39;100.00;98576.16;4880284;29;19924;-88
2024/03/25 11:17:26;;;;;;;;;;;;;;;8.34;100.00;98565.88;4864169;29;20272;-87
2024/03/25 11:19:52;;;;;;;;;;;;;;;8.40;100.00;98569.97;4864575;29;19943;-87
2024/03/25 11:22:24;;;;;;;;;;;;;;;8.42;100.00;98561.97;4879282;29;19924;-87
2024/03/25 11:24:52;;;;;;;;;;;;;;;8.39;100.00;98560.34;4880122;29;19971;-86
2024/03/25 11:27:29;;;;;;;;;;;;;;;8.43;100.00;98553.13;4880467;29;19951;-85
2024/03/25 11:30:31;;;;;;;;;;;;;;;;;;;;;
2024/03/25 11:32:57;;;;;;;;;;;;;;;8.42;100.00;98538.22;5024162;23;20301;-88
2024/03/25 11:35:38;;;;;;;;;;;;;;;8.41;100.00;98533.84;4911163;29;20006;-86
2024/03/25 11:38:35;;;;;;;;;;;;;;;8.45;100.00;98530.16;4909639;29;20006;-88
2024/03/25 11:41:01;;;;;;;;;;;;;;;8.48;100.00;98522.06;4927649;29;19918;-86
2024/03/25 11:43:26;;;;;;;;;;;;;;;8.51;100.00;98529.84;4927918;29;20280;-86
2024/03/25 11:45:53;;;;;;;;;;;;;;;8.52;100.00;98524.47;4910934;29;19926;-87
2024/03/25 11:49:22;;;;;;;;;;;;;;;8.46;100.00;98514.25;4928148;29;19927;-87
2024/03/25 11:51:33;;;;;;;;;;;;;;;8.54;100.00;98516.47;4869150;29;20265;-87
2024/03/25 11:53:59;;;;;;;;;;;;;;;8.56;100.00;98511.09;4925311;29;19926;-87
2024/03/25 11:56:24;;;;;;;;;;;;;;;8.56;100.00;98497.91;4927521;29;19927;-87
2024/03/25 11:58:50;;;;;;;;;;;;;;;8.56;100.00;98495.25;4910083;29;19923;-87
2024/03/25 12:01:15;;;;;;;;;;;;;;;8.57;100.00;98484.63;4910065;29;19919;-86
2024/03/25 12:03:52;;;;;;;;;;;;;;;8.56;100.00;98489.97;4927245;29;19926;-87
2024/03/25 12:06:17;;;;;;;;;;;;;;;8.58;100.00;98485.47;4933878;29;19930;-87
2024/03/25 12:11:17;;;;;;;;;;;;;;;8.63;100.00;98471.09;4925660;29;19926;-87
2024/03/25 12:11:30;;;;;;;;;;;;;;;8.61;100.00;98464.16;4926440;29;19923;-85
2024/03/25 12:13:56;;;;;;;;;;;;;;;8.65;100.00;98463.06;4927177;29;19946;-86
2024/03/25 12:16:21;;;;;;;;;;;;;;;8.62;100.00;98458.81;4926921;29;19962;-86
2024/03/25 12:18:47;;;;;;;;;;;;;;;8.66;100.00;98460.34;4910213;29;19942;-86
2024/03/25 12:21:14;;;;;;;;;;;;;;;8.63;100.00;98460.50;4908375;29;20354;-86
2024/03/25 12:23:41;;;;;;;;;;;;;;;8.68;100.00;98457.59;4926781;29;20014;-86
2024/03/25 12:26:08;;;;;;;;;;;;;;;8.69;100.00;98438.19;4926124;29;19931;-86
2024/03/25 12:28:36;;;;;;;;;;;;;;;8.68;100.00;98420.63;4927387;29;19927;-86
2024/03/25 12:31:02;;;;;;;;;;;;;;;8.69;100.00;98411.78;4926116;29;19931;-86
2024/03/25 12:33:27;;;;;;;;;;;;;;;8.71;100.00;98415.16;4925337;29;19933;-86
2024/03/25 12:35:53;;;;;;;;;;;;;;;8.73;100.00;98408.88;4926248;29;20009;-86
2024/03/25 12:38:28;;;;;;;;;;;;;;;8.72;100.00;98398.41;4926741;29;19955;-86
2024/03/25 12:40:54;;;;;;;;;;;;;;;8.74;100.00;98388.59;4926489;29;20330;-85
2024/03/25 12:43:20;;;;;;;;;;;;;;;8.81;100.00;98384.66;4924971;29;20286;-85
2024/03/25 12:45:45;;;;;;;;;;;;;;;8.78;100.00;98390.13;4916840;29;19922;-85
2024/03/25 12:48:10;;;;;;;;;;;;;;;8.79;100.00;98378.63;4926712;29;20417;-86
2024/03/25 12:50:36;;;;;;;;;;;;;;;8.78;100.00;98369.00;4909669;29;19973;-85
2024/03/25 12:53:02;;;;;;;;;;;;;;;8.78;100.00;98374.28;4924949;29;20097;-86
2024/03/25 12:55:28;;;;;;;;;;;;;;;8.77;100.00;98366.44;4926882;29;20031;-85
2024/03/25 12:57:53;;;;;;;;;;;;;;;8.76;100.00;98357.69;4926252;29;19923;-85
2024/03/25 13:00:18;;;;;;;;;;;;;;;8.80;100.00;98356.53;4926560;29;19931;-85
2024/03/25 13:02:44;;;;;;;;;;;;;;;8.80;100.00;98345.13;4925386;29;20002;-85
2024/03/25 13:05:09;;;;;;;;;;;;;;;8.82;100.00;98343.25;4926186;29;19930;-86
2024/03/25 13:07:34;;;;;;;;;;;;;;;8.85;100.00;98343.06;4908077;29;19971;-86
2024/03/25 13:10:00;;;;;;;;;;;;;;;8.84;100.00;98339.59;4925883;29;19923;-85
2024/03/25 13:12:25;;;;;;;;;;;;;;;8.84;100.00;98334.31;4909137;29;19930;-85
2024/03/25 13:14:50;;;;;;;;;;;;;;;8.82;100.00;98325.63;4909715;29;19966;-85
2024/03/25 13:17:15;;;;;;;;;;;;;;;8.86;100.00;98319.22;4926906;29;19946;-85
2024/03/25 13:19:41;;;;;;;;;;;;;;;8.85;100.00;98329.88;4927824;29;19926;-85
2024/03/25 13:22:06;;;;;;;;;;;;;;;8.86;100.00;98313.94;4907487;29;20015;-85
2024/03/25 13:24:31;;;;;;;;;;;;;;;8.86;100.00;98313.09;4926132;29;20371;-86
2024/03/25 13:26:56;;;;;;;;;;;;;;;8.90;100.00;98302.25;4926442;29;19938;-85
2024/03/25 13:29:22;;;;;;;;;;;;;;;8.92;100.00;98307.44;4925806;29;20275;-85
2024/03/25 13:31:47;;;;;;;;;;;;;;;8.90;100.00;98306.66;4926184;29;20013;-85
2024/03/25 13:34:12;;;;;;;;;;;;;;;8.95;100.00;98309.03;4925813;29;19923;-85
2024/03/25 13:36:38;;;;;;;;;;;;;;;8.93;100.00;98292.44;4908340;29;19966;-85
2024/03/25 13:39:03;;;;;;;;;;;;;;;8.94;100.00;98278.28;4925183;29;19922;-90
2024/03/25 13:41:28;;;;;;;;;;;;;;;8.95;100.00;98264.13;4925508;29;19919;-86
2024/03/25 13:43:56;;;;;;;;;;;;;;;8.96;100.00;98264.03;4908790;29;20466;-87
2024/03/25 13:46:21;;;;;;;;;;;;;;;9.02;100.00;98262.81;4909174;29;19927;-83
2024/03/25 13:48:47;;;;;;;;;;;;;;;8.98;100.00;98263.94;4925767;29;19922;-85
2024/03/25 13:51:12;;;;;;;;;;;;;;;9.01;100.00;98250.53;4925037;29;19962;-88
2024/03/25 13:53:38;;;;;;;;;;;;;;;9.03;100.00;98251.28;4924073;29;19969;-87
2024/03/25 13:56:03;;;;;;;;;;;;;;;9.02;100.00;98239.88;4925934;29;20013;-87
2024/03/25 13:58:28;;;;;;;;;;;;;;;9.05;100.00;98238.88;4908406;29;20429;-87
2024/03/25 14:00:55;;;;;;;;;;;;;;;9.02;100.00;98239.88;4924989;29;19922;-88
2024/03/25 14:03:20;;;;;;;;;;;;;;;9.06;100.00;98235.25;4909146;29;19958;-85
2024/03/25 14:05:46;;;;;;;;;;;;;;;9.11;100.00;98232.34;4925229;29;19977;-87
2024/03/25 14:08:11;;;;;;;;;;;;;;;9.03;100.00;98219.59;4924165;29;19915;-85
2024/03/25 14:10:36;;;;;;;;;;;;;;;9.09;100.00;98221.84;4925254;29;20009;-85
2024/03/25 14:13:03;;;;;;;;;;;;;;;9.03;100.00;98204.59;4908924;29;19915;-84
2024/03/25 14:15:28;;;;;;;;;;;;;;;9.08;100.00;98205.16;4908312;29;19958;-86
2024/03/25 14:17:53;;;;;;;;;;;;;;;9.05;100.00;98215.94;4925513;29;20494;-86
2024/03/25 14:20:19;;;;;;;;;;;;;;;9.08;100.00;98206.97;4907695;29;20283;-84
2024/03/25 14:22:44;;;;;;;;;;;;;;;9.18;100.00;98199.31;4907155;29;19926;-84
2024/03/25 14:25:09;;;;;;;;;;;;;;;9.14;100.00;98198.63;4908326;29;20009;-84
2024/03/25 14:27:34;;;;;;;;;;;;;;;9.13;100.00;98191.66;4926667;29;20262;-84
2024/03/25 14:30:00;;;;;;;;;;;;;;;9.16;100.00;98185.31;4924760;29;19937;-80
2024/03/25 14:32:25;;;;;;;;;;;;;;;9.16;100.00;98178.28;4908632;29;20022;-81
2024/03/25 14:34:50;;;;;;;;;;;;;;;9.15;100.00;98173.91;4924791;29;19962;-85
2024/03/25 14:37:15;;;;;;;;;;;;;;;9.16;100.00;98167.69;4906283;29;20366;-84
2024/03/25 14:39:41;;;;;;;;;;;;;;;9.18;100.00;98157.88;4908065;29;20349;-84
2024/03/25 14:42:10;;;;;;;;;;;;;;;9.16;100.00;98156.25;4908342;29;19930;-85
2024/03/25 14:44:38;;;;;;;;;;;;;;;9.19;100.00;98151.66;4924805;29;19951;-84
2024/03/25 14:47:04;;;;;;;;;;;;;;;9.16;100.00;98154.50;4925497;29;19969;-84
2024/03/25 14:49:29;;;;;;;;;;;;;;;9.22;100.00;98147.94;4924696;29;19962;-84
2024/03/25 14:51:54;;;;;;;;;;;;;;;9.18;100.00;98149.94;4924375;29;19919;-85
2024/03/25 14:54:20;;;;;;;;;;;;;;;9.17;100.00;98142.94;4926424;29;19927;-83
2024/03/25 14:56:45;;;;;;;;;;;;;;;9.19;100.00;98137.56;4924755;29;19974;-84
2024/03/25 14:59:10;;;;;;;;;;;;;;;9.18;100.00;98136.72;4925071;29;20387;-82
2024/03/25 15:01:37;;;;;;;;;;;;;;;9.22;100.00;98134.75;4925480;29;19974;-85
2024/03/25 15:04:02;;;;;;;;;;;;;;;9.20;100.00;98132.19;4924677;29;20422;-83
2024/03/25 15:06:27;;;;;;;;;;;;;;;9.21;100.00;98127.78;4925650;29;19923;-84
2024/03/25 15:08:53;;;;;;;;;;;;;;;9.22;100.00;98130.31;4924297;29;19923;-84
2024/03/25 15:11:18;;;;;;;;;;;;;;;9.23;100.00;98118.78;4907856;29;19934;-84
2024/03/25 15:13:44;;;;;;;;;;;;;;;9.27;100.00;98116.81;4925059;29;20409;-83
2024/03/25 15:16:11;;;;;;;;;;;;;;;9.27;100.00;98117.66;4908058;29;19934;-83
2024/03/25 15:18:38;;;;;;;;;;;;;;;9.30;100.00;98102.53;4908191;29;19919;-87
2024/03/25 15:21:04;;;;;;;;;;;;;;;9.29;100.00;98108.78;4908189;29;19926;-85
2024/03/25 15:23:30;;;;;;;;;;;;;;;9.29;100.00;98103.50;4905360;29;20323;-86
2024/03/25 15:25:56;;;;;;;;;;;;;;;9.29;100.00;98106.16;4908004;29;20290;-85
2024/03/25 15:28:21;;;;;;;;;;;;;;;9.26;100.00;98097.44;4925441;29;19922;-85
2024/03/25 15:30:47;;;;;;;;;;;;;;;9.27;100.00;98099.16;4926558;29;20397;-85
2024/03/25 15:33:12;;;;;;;;;;;;;;;9.29;100.00;98092.94;4927827;29;19931;-86
2024/03/25 15:35:38;;;;;;;;;;;;;;;9.34;100.00;98085.56;4928003;29;20010;-87
2024/03/25 15:38:03;;;;;;;;;;;;;;;9.33;100.00;98083.84;4927127;29;19944;-87
2024/03/25 15:40:29;;;;;;;;;;;;;;;9.32;100.00;98082.13;4928562;29;20762;-86
2024/03/25 15:42:54;;;;;;;;;;;;;;;9.31;100.00;98076.00;4927747;29;19930;-86
2024/03/25 15:45:20;;;;;;;;;;;;;;;9.30;100.00;98073.47;4909655;29;19927;-85
2024/03/25 15:47:45;;;;;;;;;;;;;;;9.33;100.00;98062.69;4910593;29;19954;-85
2024/03/25 15:50:11;;;;;;;;;;;;;;;9.31;100.00;98062.78;4927256;29;20414;-86
2024/03/25 15:52:36;;;;;;;;;;;;;;;9.35;100.00;98061.66;4926469;29;19970;-85
2024/03/25 15:55:02;;;;;;;;;;;;;;;9.34;100.00;98059.13;4927475;29;19915;-83
2024/03/25 15:57:27;;;;;;;;;;;;;;;9.35;100.00;98055.50;4927511;29;20399;-86
2024/03/25 15:59:55;;;;;;;;;;;;;;;9.32;100.00;98061.84;4927647;29;19919;-85
2024/03/25 16:02:20;;;;;;;;;;;;;;;9.32;100.00;98050.41;4927016;29;19923;-89
2024/03/25 16:04:46;;;;;;;;;;;;;;;9.30;100.00;98044.38;4927019;29;19930;-85
2024/03/25 16:07:11;;;;;;;;;;;;;;;9.30;100.00;98053.16;4928013;29;19923;-86
2024/03/25 16:09:36;;;;;;;;;;;;;;;10.17;100.00;98050.91;4909705;29;19924;-86
2024/03/25 16:12:02;;;;;;;;;;;;;;;9.70;100.00;98050.56;4928268;29;20004;-86
2024/03/25 16:14:33;;;;;;;;;;;;;;;9.55;100.00;98041.81;4927215;29;20367;-87
2024/03/25 16:16:59;;;;;;;;;;;;;;;9.49;100.00;98041.38;4909396;29;20006;-86
2024/03/25 16:19:24;;;;;;;;;;;;;;;9.44;100.00;98039.03;4926265;29;19919;-84
2024/03/25 16:21:50;;;;;;;;;;;;;;;9.45;100.00;98032.81;4926498;29;19991;-83
2024/03/25 16:24:15;;;;;;;;;;;;;;;9.39;100.00;98026.13;4926401;29;20017;-85
2024/03/25 16:26:40;;;;;;;;;;;;;;;9.40;100.00;98032.28;4927045;29;19930;-85
2024/03/25 16:29:05;;;;;;;;;;;;;;;9.41;100.00;98028.66;4927534;29;20423;-85
2024/03/25 16:31:32;;;;;;;;;;;;;;;9.41;100.00;98018.09;4926741;29;20378;-88
2024/03/25 16:33:57;;;;;;;;;;;;;;;9.37;100.00;98013.97;4909830;29;19923;-87
2024/03/25 16:36:22;;;;;;;;;;;;;;;9.41;100.00;98007.53;4909881;29;20343;-84
2024/03/25 16:38:47;;;;;;;;;;;;;;;9.39;100.00;98009.44;4908320;29;19927;-82
2024/03/25 16:41:13;;;;;;;;;;;;;;;9.40;100.00;98008.50;4925276;29;19958;-85
2024/03/25 16:43:38;;;;;;;;;;;;;;;9.49;100.00;98004.38;4927901;29;20290;-86
2024/03/25 16:46:03;;;;;;;;;;;;;;;9.79;100.00;98002.31;4909433;29;19935;-83
2024/03/25 16:48:29;;;;;;;;;;;;;;;9.62;100.00;97999.94;4909296;29;20013;-84
2024/03/25 16:50:55;;;;;;;;;;;;;;;9.56;100.00;98000.38;4909699;29;19923;-84
2024/03/25 16:53:20;;;;;;;;;;;;;;;9.52;100.00;97999.72;4925507;29;20338;-83
2024/03/25 16:55:45;;;;;;;;;;;;;;;9.50;100.00;97996.34;4909271;29;19931;-90
2024/03/25 16:58:10;;;;;;;;;;;;;;;9.51;100.00;97999.81;4926428;29;19919;-84
2024/03/25 17:00:36;;;;;;;;;;;;;;;9.51;100.00;98003.34;4926256;29;20294;-84
2024/03/25 17:03:01;;;;;;;;;;;;;;;9.51;100.00;97992.75;4909916;29;19930;-85
2024/03/25 17:05:29;;;;;;;;;;;;;;;9.50;100.00;97992.88;4926123;29;19923;-84
2024/03/25 17:07:54;;;;;;;;;;;;;;;9.51;100.00;97998.06;4908812;29;20043;-86
2024/03/25 17:10:19;;;;;;;;;;;;;;;9.51;100.00;97998.06;4926190;29;19919;-83
2024/03/25 17:12:45;;;;;;;;;;;;;;;9.52;100.00;98009.47;4926234;29;20374;-85
2024/03/25 17:15:10;;;;;;;;;;;;;;;9.54;100.00;97997.84;4925863;29;20429;-85
2024/03/25 17:17:35;;;;;;;;;;;;;;;9.51;100.00;97995.41;4926133;29;20317;-85
2024/03/25 17:20:01;;;;;;;;;;;;;;;9.53;100.00;97998.78;4926192;29;19949;-85
2024/03/25 17:22:26;;;;;;;;;;;;;;;9.51;100.00;98000.69;4924604;29;19966;-85
2024/03/25 17:24:52;;;;;;;;;;;;;;;9.51;100.00;98000.69;4908601;29;19919;-85
2024/03/25 17:27:17;;;;;;;;;;;;;;;9.52;100.00;97993.59;4926146;29;19923;-85
2024/03/25 17:29:43;;;;;;;;;;;;;;;9.51;100.00;97992.75;4926087;29;20286;-88
2024/03/25 17:32:08;;;;;;;;;;;;;;;9.52;100.00;97989.16;4926037;29;20503;-86
2024/03/25 17:34:33;;;;;;;;;;;;;;;9.50;100.00;97988.41;4908576;29;19923;-85
2024/03/25 17:36:58;;;;;;;;;;;;;;;9.52;100.00;97988.31;4924076;29;19923;-88
2024/03/25 17:39:26;;;;;;;;;;;;;;;9.51;100.00;97983.97;4909127;29;19926;-85
2024/03/25 17:41:51;;;;;;;;;;;;;;;9.52;100.00;97989.16;4924666;29;19923;-87
2024/03/25 17:44:17;;;;;;;;;;;;;;;9.52;100.00;97988.31;4907362;29;19920;-86
2024/03/25 17:46:42;;;;;;;;;;;;;;;9.52;100.00;97978.56;4925257;29;19918;-86
2024/03/25 17:49:07;;;;;;;;;;;;;;;9.52;100.00;97978.56;4925830;29;20285;-86
2024/03/25 17:51:33;;;;;;;;;;;;;;;9.54;100.00;97975.81;4908171;29;19923;-85
2024/03/25 17:53:58;;;;;;;;;;;;;;;9.54;100.00;97971.41;4924075;29;19919;-85
2024/03/25 17:56:24;;;;;;;;;;;;;;;9.51;100.00;97966.31;4925459;29;19926;-86
2024/03/25 17:58:49;;;;;;;;;;;;;;;9.53;100.00;97966.22;4925960;29;19923;-87
2024/03/25 18:01:14;;;;;;;;;;;;;;;9.53;100.00;97963.56;4925431;29;19950;-87
2024/03/25 18:03:39;;;;;;;;;;;;;;;9.51;100.00;97958.38;4908066;29;19974;-86
2024/03/25 18:06:05;;;;;;;;;;;;;;;9.54;100.00;97950.25;4908761;29;20327;-85
2024/03/25 18:08:30;;;;;;;;;;;;;;;9.50;100.00;97953.22;4924480;29;20373;-87
2024/03/25 18:10:55;;;;;;;;;;;;;;;9.38;100.00;97954.84;4925040;29;19919;-88
2024/03/25 18:13:20;;;;;;;;;;;;;;;9.33;100.00;97951.69;4925726;29;19954;-87
2024/03/25 18:15:49;;;;;;;;;;;;;;;9.33;100.00;97951.69;4925055;29;20430;-88
2024/03/25 18:18:15;;;;;;;;;;;;;;;9.29;100.00;97945.75;4925121;29;19923;-89
2024/03/25 18:20:41;;;;;;;;;;;;;;;9.31;100.00;97948.31;4926262;29;19925;-87
2024/03/25 18:23:06;;;;;;;;;;;;;;;9.26;100.00;97946.81;4924054;29;19918;-85
2024/03/25 18:25:32;;;;;;;;;;;;;;;9.09;100.00;97942.66;4908637;29;19923;-87
2024/03/25 18:27:57;;;;;;;;;;;;;;;9.01;100.00;97936.16;4924925;29;19961;-89
2024/03/25 18:30:22;;;;;;;;;;;;;;;8.83;100.00;97938.22;4908470;29;20022;-86
2024/03/25 18:33:11;;;;;;;;;;;;;;;8.66;100.00;97934.91;4922852;29;20320;-87
2024/03/25 18:35:39;;;;;;;;;;;;;;;8.62;100.00;97932.56;4924775;29;19934;-87
2024/03/25 18:38:04;;;;;;;;;;;;;;;8.60;100.00;97931.78;4923870;29;19919;-84
2024/03/25 18:40:30;;;;;;;;;;;;;;;8.58;100.00;97931.88;4924788;29;19925;-86
2024/03/25 18:43:04;;;;;;;;;;;;;;;8.49;100.00;97922.78;4925802;29;20059;-91
2024/03/25 18:45:29;;;;;;;;;;;;;;;8.45;100.00;97915.97;4907147;29;20010;-86
2024/03/25 18:47:55;;;;;;;;;;;;;;;8.37;100.00;97919.06;4907280;29;19968;-85
2024/03/25 18:50:20;;;;;;;;;;;;;;;8.34;100.00;97913.16;4925584;29;19926;-85
2024/03/25 18:52:45;;;;;;;;;;;;;;;8.26;100.00;97907.50;4924739;29;20298;-87
2024/03/25 18:55:11;;;;;;;;;;;;;;;8.21;100.00;97917.53;4908123;29;19927;-83
2024/03/25 18:57:36;;;;;;;;;;;;;;;8.16;100.00;97910.72;4924568;29;19919;-89
2024/03/25 19:00:05;;;;;;;;;;;;;;;8.11;100.00;97904.91;4925113;29;20391;-85
2024/03/25 19:02:31;;;;;;;;;;;;;;;8.13;100.00;97908.28;4924895;29;19926;-89
2024/03/25 19:04:56;;;;;;;;;;;;;;;8.16;100.00;97908.09;4927833;29;19919;-86
2024/03/25 19:07:21;;;;;;;;;;;;;;;8.15;100.00;97901.13;4927313;29;19925;-87
2024/03/25 19:09:47;;;;;;;;;;;;;;;8.19;100.00;97905.25;4928809;29;19953;-86
2024/03/25 19:12:21;;;;;;;;;;;;;;;8.22;100.00;97903.34;4928510;29;19941;-86
2024/03/25 19:14:46;;;;;;;;;;;;;;;8.37;100.00;97902.41;4927831;29;19941;-85
2024/03/25 19:17:11;;;;;;;;;;;;;;;8.48;100.00;97902.59;4928254;29;20013;-84
2024/03/25 19:19:36;;;;;;;;;;;;;;;8.63;100.00;97887.56;4928141;29;19930;-88
2024/03/25 19:22:02;;;;;;;;;;;;;;;8.71;100.00;97894.97;4927180;29;19981;-84
2024/03/25 19:24:27;;;;;;;;;;;;;;;8.75;100.00;97893.84;4928050;29;20367;-85
2024/03/25 19:26:52;;;;;;;;;;;;;;;8.80;100.00;97890.91;4927743;29;20010;-83
2024/03/25 19:29:18;;;;;;;;;;;;;;;8.85;100.00;97884.34;4911380;29;20014;-85
2024/03/25 19:31:43;;;;;;;;;;;;;;;8.89;100.00;97879.72;4911169;29;19945;-84
2024/03/25 19:34:08;;;;;;;;;;;;;;;8.91;100.00;97873.38;4927262;29;19927;-83
2024/03/25 19:36:34;;;;;;;;;;;;;;;9.00;100.00;97868.44;4928303;29;20001;-87
2024/03/25 19:38:59;;;;;;;;;;;;;;;9.04;100.00;97867.28;4927020;29;19918;-86
2024/03/25 19:41:29;;;;;;;;;;;;;;;9.08;100.00;97869.63;4911009;29;19970;-84
2024/03/25 19:43:54;;;;;;;;;;;;;;;9.13;100.00;97856.09;4927619;29;19963;-88
2024/03/25 19:46:20;;;;;;;;;;;;;;;9.16;100.00;97855.03;4927824;29;20392;-87
2024/03/25 19:48:45;;;;;;;;;;;;;;;9.20;100.00;97852.06;4910611;29;19926;-87
2024/03/25 19:51:10;;;;;;;;;;;;;;;9.22;100.00;97850.19;4927197;29;19965;-85
2024/03/25 19:53:36;;;;;;;;;;;;;;;9.31;100.00;97842.59;4926649;29;19928;-87
2024/03/25 19:56:19;;;;;;;;;;;;;;;9.35;100.00;97828.19;4910613;29;19970;-86
2024/03/25 19:58:45;;;;;;;;;;;;;;;9.39;100.00;97827.03;4888083;29;19920;-88
2024/03/25 20:01:10;;;;;;;;;;;;;;;9.43;100.00;97825.91;4887477;29;20438;-87
2024/03/25 20:03:38;;;;;;;;;;;;;;;9.52;100.00;97830.50;4887263;29;19973;-87
2024/03/25 20:06:04;;;;;;;;;;;;;;;9.56;100.00;97839.94;4887297;29;20339;-86
2024/03/25 20:08:29;;;;;;;;;;;;;;;9.62;100.00;97836.00;4887363;29;19927;-86
2024/03/25 20:10:54;;;;;;;;;;;;;;;9.64;100.00;97834.97;4887063;29;20407;-86
2024/03/25 20:13:20;;;;;;;;;;;;;;;9.75;100.00;97825.44;4887642;29;19924;-86
2024/03/25 20:15:52;;;;;;;;;;;;;;;9.80;100.00;97828.59;4886107;29;19971;-86
2024/03/25 20:18:18;;;;;;;;;;;;;;;9.83;100.00;97823.09;4888486;29;19920;-87
2024/03/25 20:20:43;;;;;;;;;;;;;;;9.86;100.00;97820.22;4887985;29;19923;-88
2024/03/25 20:23:08;;;;;;;;;;;;;;;9.90;100.00;97819.03;4885408;29;19987;-87
2024/03/25 20:25:34;;;;;;;;;;;;;;;9.93;100.00;97824.13;4887635;29;19919;-83
2024/03/25 20:28:00;;;;;;;;;;;;;;;9.99;100.00;97821.03;4886551;29;19930;-86
2024/03/25 20:30:25;;;;;;;;;;;;;;;10.06;100.00;97815.31;4917689;29;19923;-88
2024/03/25 20:32:50;;;;;;;;;;;;;;;10.10;100.00;97819.41;4927282;29;19927;-83
2024/03/25 20:35:16;;;;;;;;;;;;;;;10.16;100.00;97824.25;4926461;29;19923;-89
2024/03/25 20:37:41;;;;;;;;;;;;;;;10.18;100.00;97820.56;4926587;29;19934;-86
2024/03/25 20:40:07;;;;;;;;;;;;;;;10.20;100.00;97822.25;4909718;29;19923;-89
2024/03/25 20:42:32;;;;;;;;;;;;;;;10.21;100.00;97826.56;4927531;29;20768;-86
2024/03/25 20:44:57;;;;;;;;;;;;;;;10.26;100.00;97819.13;4927233;29;20046;-84
2024/03/25 20:47:22;;;;;;;;;;;;;;;10.27;100.00;97805.78;4926646;29;20343;-86
2024/03/25 20:49:48;;;;;;;;;;;;;;;10.27;100.00;97807.59;4926643;29;19942;-86
2024/03/25 20:52:13;;;;;;;;;;;;;;;10.32;100.00;97797.53;4925121;29;19934;-89
2024/03/25 20:54:38;;;;;;;;;;;;;;;10.34;100.00;97793.00;4927593;29;19962;-86
2024/03/25 20:57:04;;;;;;;;;;;;;;;10.40;100.00;97792.53;4925226;29;20008;-91
2024/03/25 20:59:29;;;;;;;;;;;;;;;10.46;100.00;97788.59;4910096;29;19919;-90
2024/03/25 21:01:54;;;;;;;;;;;;;;;10.43;100.00;97786.19;4909660;29;19946;-84
2024/03/25 21:04:20;;;;;;;;;;;;;;;10.42;100.00;97784.47;4926742;29;19930;-86
2024/03/25 21:06:45;;;;;;;;;;;;;;;10.47;100.00;97790.31;4924846;29;19919;-88
2024/03/25 21:09:11;;;;;;;;;;;;;;;10.51;100.00;97781.16;4909867;29;19919;-88
2024/03/25 21:11:36;;;;;;;;;;;;;;;10.47;100.00;97790.31;4926279;29;19919;-85
2024/03/25 21:14:01;;;;;;;;;;;;;;;10.52;100.00;97794.28;4926498;29;19941;-85
2024/03/25 21:16:26;;;;;;;;;;;;;;;10.54;100.00;97780.94;4925713;29;19970;-86
2024/03/25 21:18:52;;;;;;;;;;;;;;;10.60;100.00;97784.94;4927090;29;19952;-84
2024/03/25 21:21:17;;;;;;;;;;;;;;;10.61;100.00;97781.31;4925459;29;19927;-85
2024/03/25 21:23:46;;;;;;;;;;;;;;;10.67;100.00;97781.72;4923652;29;19929;-86
2024/03/25 21:26:11;;;;;;;;;;;;;;;10.66;100.00;97785.31;4925875;29;19964;-88
2024/03/25 21:28:36;;;;;;;;;;;;;;;10.70;100.00;97783.28;4925741;29;19970;-86
2024/03/25 21:31:22;;;;;;;;;;;;;;;10.68;100.00;97788.69;4925050;29;19923;-92
2024/03/25 21:33:47;;;;;;;;;;;;;;;10.69;100.00;97793.03;4924963;29;20398;-84
2024/03/25 21:36:14;;;;;;;;;;;;;;;10.78;100.00;97788.00;4924796;29;19930;-83
2024/03/25 21:38:39;;;;;;;;;;;;;;;10.81;100.00;97787.78;4924224;29;19933;-84